aviador You're here:

PHHI Decoded Metar

WHEELER AFB. in HI, USA OAHU ISL.
Report Time2017-11-23 13:56:00
UTC Time2017-11-23 14:58:46
Flight Rules vfr VFR
Wind030° at 12 Gusting to 18 kt
W.Decomp.*RWY 06: 9.1 kt HW 7.9 kt LCW
W.Rank030° ranks 15
Current wind is above 030° avg. (6.8)
Visibility9999 m
Phenomena:N/A
Clouds:Scattered 055 Hf
Broken 070 Hf
Expected CloudBase > 1,600 ft AGL from Temp-Dew spread
Ceiling7,000 ft
Temp20°C (ISA +7)
Dew Point16°C (78% RH)
AAT17.7°C
QNH1020 hPa
Density Alt1,624 ft
Elevation837 ft
Report Wrong Elevation
Raw Report
PHHI 231356Z AUTO 03012G18KT 10SM SCT055 BKN070 20/16 A3011 RMK
AO2 SLP189 T01970157 FZRANO $=

Extra information for PHHI:More info

Metar Taf Metar & Taf Last 4 Metars F.Rules Stats Wind Profile Meteogram Temp Stats Airport Information Weather charts Add Link Nearby VenuesMetar ALERT Operation Metar Decoded Social comments